sensor_id;sensor_type;location;lat;lon;timestamp;P1;durP1;ratioP1;P2;durP2;ratioP2
23782;SDS011;12071;50.850;4.446;2024-02-04T00:01:18;19.00;;;12.90;;
23782;SDS011;12071;50.850;4.446;2024-02-04T00:03:44;21.15;;;13.43;;
23782;SDS011;12071;50.850;4.446;2024-02-04T00:06:10;26.70;;;14.25;;
23782;SDS011;12071;50.850;4.446;2024-02-04T00:08:36;28.63;;;14.38;;
23782;SDS011;12071;50.850;4.446;2024-02-04T00:11:02;22.85;;;13.70;;
23782;SDS011;12071;50.850;4.446;2024-02-04T00:13:29;24.27;;;13.63;;
23782;SDS011;12071;50.850;4.446;2024-02-04T00:15:55;22.88;;;11.73;;
23782;SDS011;12071;50.850;4.446;2024-02-04T00:18:23;25.27;;;13.45;;
23782;SDS011;12071;50.850;4.446;2024-02-04T00:20:49;21.63;;;12.40;;
23782;SDS011;12071;50.850;4.446;2024-02-04T00:23:15;25.02;;;13.77;;
23782;SDS011;12071;50.850;4.446;2024-02-04T00:25:41;20.33;;;12.18;;
23782;SDS011;12071;50.850;4.446;2024-02-04T00:28:07;16.23;;;11.65;;
23782;SDS011;12071;50.850;4.446;2024-02-04T00:30:36;19.45;;;12.07;;
23782;SDS011;12071;50.850;4.446;2024-02-04T00:33:02;18.52;;;11.90;;
23782;SDS011;12071;50.850;4.446;2024-02-04T00:35:29;19.55;;;12.70;;
23782;SDS011;12071;50.850;4.446;2024-02-04T00:37:54;19.30;;;12.18;;
23782;SDS011;12071;50.850;4.446;2024-02-04T00:40:20;16.98;;;11.68;;
23782;SDS011;12071;50.850;4.446;2024-02-04T00:42:46;18.15;;;11.45;;
23782;SDS011;12071;50.850;4.446;2024-02-04T00:45:11;20.05;;;11.13;;
23782;SDS011;12071;50.850;4.446;2024-02-04T00:47:37;20.10;;;10.95;;
23782;SDS011;12071;50.850;4.446;2024-02-04T00:50:03;18.20;;;11.82;;
23782;SDS011;12071;50.850;4.446;2024-02-04T00:52:29;15.80;;;10.90;;
23782;SDS011;12071;50.850;4.446;2024-02-04T00:54:55;16.98;;;9.95;;
23782;SDS011;12071;50.850;4.446;2024-02-04T00:57:20;14.63;;;9.93;;
23782;SDS011;12071;50.850;4.446;2024-02-04T00:59:46;15.10;;;10.32;;
23782;SDS011;12071;50.850;4.446;2024-02-04T01:02:12;18.13;;;10.10;;
23782;SDS011;12071;50.850;4.446;2024-02-04T01:04:37;16.77;;;10.02;;
23782;SDS011;12071;50.850;4.446;2024-02-04T01:07:03;16.00;;;9.82;;
23782;SDS011;12071;50.850;4.446;2024-02-04T01:09:28;13.57;;;9.52;;
23782;SDS011;12071;50.850;4.446;2024-02-04T01:11:54;14.52;;;8.95;;
23782;SDS011;12071;50.850;4.446;2024-02-04T01:14:20;14.98;;;9.88;;
23782;SDS011;12071;50.850;4.446;2024-02-04T01:16:45;18.77;;;10.68;;
23782;SDS011;12071;50.850;4.446;2024-02-04T01:19:11;23.50;;;10.50;;
23782;SDS011;12071;50.850;4.446;2024-02-04T01:21:36;16.10;;;9.57;;
23782;SDS011;12071;50.850;4.446;2024-02-04T01:24:02;19.33;;;10.18;;
23782;SDS011;12071;50.850;4.446;2024-02-04T01:26:28;14.45;;;9.35;;
23782;SDS011;12071;50.850;4.446;2024-02-04T01:28:53;14.43;;;9.48;;
23782;SDS011;12071;50.850;4.446;2024-02-04T01:31:19;17.67;;;9.70;;
23782;SDS011;12071;50.850;4.446;2024-02-04T01:33:45;16.63;;;9.18;;
23782;SDS011;12071;50.850;4.446;2024-02-04T01:36:10;14.80;;;9.02;;
23782;SDS011;12071;50.850;4.446;2024-02-04T01:38:36;12.80;;;8.70;;
23782;SDS011;12071;50.850;4.446;2024-02-04T01:41:02;16.35;;;9.27;;
23782;SDS011;12071;50.850;4.446;2024-02-04T01:43:28;14.93;;;10.38;;
23782;SDS011;12071;50.850;4.446;2024-02-04T01:45:54;19.80;;;10.30;;
23782;SDS011;12071;50.850;4.446;2024-02-04T01:48:20;15.02;;;9.60;;
23782;SDS011;12071;50.850;4.446;2024-02-04T01:50:47;18.35;;;10.23;;
23782;SDS011;12071;50.850;4.446;2024-02-04T01:53:19;18.27;;;10.98;;
23782;SDS011;12071;50.850;4.446;2024-02-04T01:55:48;17.02;;;10.02;;
23782;SDS011;12071;50.850;4.446;2024-02-04T01:58:14;15.90;;;10.20;;
23782;SDS011;12071;50.850;4.446;2024-02-04T02:00:40;17.17;;;9.55;;
23782;SDS011;12071;50.850;4.446;2024-02-04T02:03:07;18.48;;;10.43;;
23782;SDS011;12071;50.850;4.446;2024-02-04T02:05:37;19.48;;;10.52;;
23782;SDS011;12071;50.850;4.446;2024-02-04T02:08:04;15.18;;;10.10;;
23782;SDS011;12071;50.850;4.446;2024-02-04T02:10:31;19.35;;;10.27;;
23782;SDS011;12071;50.850;4.446;2024-02-04T02:13:11;21.58;;;11.38;;
23782;SDS011;12071;50.850;4.446;2024-02-04T02:15:49;20.48;;;10.73;;
23782;SDS011;12071;50.850;4.446;2024-02-04T02:23:31;15.95;;;10.25;;
23782;SDS011;12071;50.850;4.446;2024-02-04T02:26:02;18.55;;;10.07;;
23782;SDS011;12071;50.850;4.446;2024-02-04T02:28:29;19.05;;;10.23;;
23782;SDS011;12071;50.850;4.446;2024-02-04T02:30:55;18.88;;;10.35;;
23782;SDS011;12071;50.850;4.446;2024-02-04T02:33:21;19.13;;;10.30;;
23782;SDS011;12071;50.850;4.446;2024-02-04T02:35:48;23.05;;;11.95;;
23782;SDS011;12071;50.850;4.446;2024-02-04T02:38:26;23.38;;;11.80;;
23782;SDS011;12071;50.850;4.446;2024-02-04T02:40:59;24.08;;;10.85;;
23782;SDS011;12071;50.850;4.446;2024-02-04T02:43:31;23.83;;;12.30;;
23782;SDS011;12071;50.850;4.446;2024-02-04T02:45:59;25.35;;;11.57;;
23782;SDS011;12071;50.850;4.446;2024-02-04T02:48:25;25.17;;;12.50;;
23782;SDS011;12071;50.850;4.446;2024-02-04T02:50:51;27.08;;;12.27;;
23782;SDS011;12071;50.850;4.446;2024-02-04T02:53:18;23.73;;;12.93;;
23782;SDS011;12071;50.850;4.446;2024-02-04T02:55:45;23.95;;;10.60;;
23782;SDS011;12071;50.850;4.446;2024-02-04T02:58:11;26.55;;;13.35;;
23782;SDS011;12071;50.850;4.446;2024-02-04T03:00:37;28.58;;;12.80;;
23782;SDS011;12071;50.850;4.446;2024-02-04T03:03:03;24.25;;;12.68;;
23782;SDS011;12071;50.850;4.446;2024-02-04T03:05:29;29.08;;;12.43;;
23782;SDS011;12071;50.850;4.446;2024-02-04T03:07:55;25.10;;;11.82;;
23782;SDS011;12071;50.850;4.446;2024-02-04T03:10:20;29.27;;;14.30;;
23782;SDS011;12071;50.850;4.446;2024-02-04T03:12:46;24.35;;;12.77;;
23782;SDS011;12071;50.850;4.446;2024-02-04T03:15:12;34.40;;;13.65;;
23782;SDS011;12071;50.850;4.446;2024-02-04T03:17:37;31.52;;;13.13;;
23782;SDS011;12071;50.850;4.446;2024-02-04T03:20:03;35.72;;;14.02;;
23782;SDS011;12071;50.850;4.446;2024-02-04T03:22:29;28.55;;;13.85;;
23782;SDS011;12071;50.850;4.446;2024-02-04T03:24:55;30.52;;;12.50;;
23782;SDS011;12071;50.850;4.446;2024-02-04T03:27:20;24.48;;;13.02;;
23782;SDS011;12071;50.850;4.446;2024-02-04T03:29:47;30.30;;;13.57;;
23782;SDS011;12071;50.850;4.446;2024-02-04T03:32:12;24.85;;;13.10;;
23782;SDS011;12071;50.850;4.446;2024-02-04T03:34:38;25.33;;;12.60;;
23782;SDS011;12071;50.850;4.446;2024-02-04T03:37:06;27.23;;;12.95;;
23782;SDS011;12071;50.850;4.446;2024-02-04T03:39:32;31.25;;;13.25;;
23782;SDS011;12071;50.850;4.446;2024-02-04T03:41:57;25.15;;;12.50;;
23782;SDS011;12071;50.850;4.446;2024-02-04T03:44:23;27.92;;;12.60;;
23782;SDS011;12071;50.850;4.446;2024-02-04T03:46:49;25.52;;;13.23;;
23782;SDS011;12071;50.850;4.446;2024-02-04T03:49:15;33.30;;;13.10;;
23782;SDS011;12071;50.850;4.446;2024-02-04T03:51:41;25.85;;;12.02;;
23782;SDS011;12071;50.850;4.446;2024-02-04T03:54:07;25.23;;;11.70;;
23782;SDS011;12071;50.850;4.446;2024-02-04T03:56:32;22.38;;;11.02;;
23782;SDS011;12071;50.850;4.446;2024-02-04T03:58:58;23.50;;;12.40;;
23782;SDS011;12071;50.850;4.446;2024-02-04T04:01:24;24.38;;;11.73;;
23782;SDS011;12071;50.850;4.446;2024-02-04T04:03:49;23.85;;;11.38;;
23782;SDS011;12071;50.850;4.446;2024-02-04T04:06:15;21.67;;;10.48;;
23782;SDS011;12071;50.850;4.446;2024-02-04T04:08:41;21.88;;;11.23;;
23782;SDS011;12071;50.850;4.446;2024-02-04T04:11:09;22.38;;;10.70;;
23782;SDS011;12071;50.850;4.446;2024-02-04T04:13:36;23.70;;;10.93;;
23782;SDS011;12071;50.850;4.446;2024-02-04T04:16:02;22.67;;;10.95;;
23782;SDS011;12071;50.850;4.446;2024-02-04T04:18:28;22.08;;;10.65;;
23782;SDS011;12071;50.850;4.446;2024-02-04T04:20:54;23.23;;;9.82;;
23782;SDS011;12071;50.850;4.446;2024-02-04T04:23:20;24.92;;;10.52;;
23782;SDS011;12071;50.850;4.446;2024-02-04T04:25:45;20.25;;;10.15;;
23782;SDS011;12071;50.850;4.446;2024-02-04T04:28:11;22.77;;;11.38;;
23782;SDS011;12071;50.850;4.446;2024-02-04T04:30:36;20.45;;;10.60;;
23782;SDS011;12071;50.850;4.446;2024-02-04T04:33:02;19.65;;;10.80;;
23782;SDS011;12071;50.850;4.446;2024-02-04T04:35:28;21.58;;;10.15;;
23782;SDS011;12071;50.850;4.446;2024-02-04T04:37:53;21.17;;;10.82;;
23782;SDS011;12071;50.850;4.446;2024-02-04T04:40:20;19.15;;;9.50;;
23782;SDS011;12071;50.850;4.446;2024-02-04T04:42:46;21.75;;;10.43;;
23782;SDS011;12071;50.850;4.446;2024-02-04T04:45:11;17.92;;;9.52;;
23782;SDS011;12071;50.850;4.446;2024-02-04T04:47:37;19.77;;;10.02;;
23782;SDS011;12071;50.850;4.446;2024-02-04T04:50:04;19.13;;;9.15;;
23782;SDS011;12071;50.850;4.446;2024-02-04T04:52:31;18.92;;;8.75;;
23782;SDS011;12071;50.850;4.446;2024-02-04T04:54:56;28.17;;;10.00;;
23782;SDS011;12071;50.850;4.446;2024-02-04T04:57:22;18.42;;;8.88;;
23782;SDS011;12071;50.850;4.446;2024-02-04T04:59:48;17.15;;;9.00;;
23782;SDS011;12071;50.850;4.446;2024-02-04T05:02:13;22.40;;;9.52;;
23782;SDS011;12071;50.850;4.446;2024-02-04T05:04:42;18.45;;;9.10;;
23782;SDS011;12071;50.850;4.446;2024-02-04T05:07:09;20.63;;;8.65;;
23782;SDS011;12071;50.850;4.446;2024-02-04T05:09:35;19.83;;;9.98;;
23782;SDS011;12071;50.850;4.446;2024-02-04T05:12:02;19.65;;;8.93;;
23782;SDS011;12071;50.850;4.446;2024-02-04T05:14:28;17.42;;;9.05;;
23782;SDS011;12071;50.850;4.446;2024-02-04T05:16:53;22.42;;;8.85;;
23782;SDS011;12071;50.850;4.446;2024-02-04T05:19:19;17.20;;;9.82;;
23782;SDS011;12071;50.850;4.446;2024-02-04T05:21:45;20.63;;;7.85;;
23782;SDS011;12071;50.850;4.446;2024-02-04T05:24:10;19.73;;;8.77;;
23782;SDS011;12071;50.850;4.446;2024-02-04T05:26:36;19.67;;;8.25;;
23782;SDS011;12071;50.850;4.446;2024-02-04T05:29:01;15.35;;;8.45;;
23782;SDS011;12071;50.850;4.446;2024-02-04T05:31:27;18.33;;;7.60;;
23782;SDS011;12071;50.850;4.446;2024-02-04T05:33:52;24.33;;;9.35;;
23782;SDS011;12071;50.850;4.446;2024-02-04T05:36:18;15.73;;;8.02;;
23782;SDS011;12071;50.850;4.446;2024-02-04T05:38:45;21.13;;;9.68;;
23782;SDS011;12071;50.850;4.446;2024-02-04T05:41:11;17.73;;;9.57;;
23782;SDS011;12071;50.850;4.446;2024-02-04T05:43:37;25.40;;;9.90;;
23782;SDS011;12071;50.850;4.446;2024-02-04T05:46:03;28.20;;;10.63;;
23782;SDS011;12071;50.850;4.446;2024-02-04T05:48:29;33.22;;;11.02;;
23782;SDS011;12071;50.850;4.446;2024-02-04T05:50:54;23.90;;;10.82;;
23782;SDS011;12071;50.850;4.446;2024-02-04T05:53:20;26.92;;;11.68;;
23782;SDS011;12071;50.850;4.446;2024-02-04T05:55:46;27.17;;;10.63;;
23782;SDS011;12071;50.850;4.446;2024-02-04T05:58:12;25.77;;;10.65;;
23782;SDS011;12071;50.850;4.446;2024-02-04T06:00:39;25.73;;;12.30;;
23782;SDS011;12071;50.850;4.446;2024-02-04T06:03:05;29.10;;;12.32;;
23782;SDS011;12071;50.850;4.446;2024-02-04T06:05:31;28.90;;;11.57;;
23782;SDS011;12071;50.850;4.446;2024-02-04T06:07:57;29.67;;;12.55;;
23782;SDS011;12071;50.850;4.446;2024-02-04T06:10:22;32.22;;;11.90;;
23782;SDS011;12071;50.850;4.446;2024-02-04T06:12:48;29.02;;;11.73;;
23782;SDS011;12071;50.850;4.446;2024-02-04T06:15:14;27.55;;;12.38;;
23782;SDS011;12071;50.850;4.446;2024-02-04T06:17:40;26.50;;;12.57;;
23782;SDS011;12071;50.850;4.446;2024-02-04T06:20:07;25.25;;;11.65;;
23782;SDS011;12071;50.850;4.446;2024-02-04T06:22:37;33.83;;;12.98;;
23782;SDS011;12071;50.850;4.446;2024-02-04T06:25:02;32.08;;;12.25;;
23782;SDS011;12071;50.850;4.446;2024-02-04T06:27:29;31.35;;;12.38;;
23782;SDS011;12071;50.850;4.446;2024-02-04T06:29:55;29.10;;;12.70;;
23782;SDS011;12071;50.850;4.446;2024-02-04T06:32:21;26.80;;;11.95;;
23782;SDS011;12071;50.850;4.446;2024-02-04T06:34:46;29.52;;;12.25;;
23782;SDS011;12071;50.850;4.446;2024-02-04T06:37:12;25.67;;;11.45;;
23782;SDS011;12071;50.850;4.446;2024-02-04T06:39:38;24.50;;;11.10;;
23782;SDS011;12071;50.850;4.446;2024-02-04T06:42:03;22.60;;;11.35;;
23782;SDS011;12071;50.850;4.446;2024-02-04T06:44:29;22.90;;;9.52;;
23782;SDS011;12071;50.850;4.446;2024-02-04T06:46:55;21.95;;;10.57;;
23782;SDS011;12071;50.850;4.446;2024-02-04T06:49:21;24.63;;;10.77;;
23782;SDS011;12071;50.850;4.446;2024-02-04T06:51:47;26.65;;;11.15;;
23782;SDS011;12071;50.850;4.446;2024-02-04T06:54:13;26.70;;;11.13;;
23782;SDS011;12071;50.850;4.446;2024-02-04T06:56:39;20.58;;;10.75;;
23782;SDS011;12071;50.850;4.446;2024-02-04T06:59:05;24.55;;;11.38;;
23782;SDS011;12071;50.850;4.446;2024-02-04T07:01:30;19.50;;;9.73;;
23782;SDS011;12071;50.850;4.446;2024-02-04T07:03:57;22.90;;;10.73;;
23782;SDS011;12071;50.850;4.446;2024-02-04T07:06:22;25.95;;;10.75;;
23782;SDS011;12071;50.850;4.446;2024-02-04T07:08:48;28.55;;;11.07;;
23782;SDS011;12071;50.850;4.446;2024-02-04T07:11:13;22.52;;;10.20;;
23782;SDS011;12071;50.850;4.446;2024-02-04T07:13:39;25.83;;;11.93;;
23782;SDS011;12071;50.850;4.446;2024-02-04T07:16:05;23.85;;;11.40;;
23782;SDS011;12071;50.850;4.446;2024-02-04T07:18:30;26.88;;;12.10;;
23782;SDS011;12071;50.850;4.446;2024-02-04T07:20:56;28.73;;;11.52;;
23782;SDS011;12071;50.850;4.446;2024-02-04T07:23:22;29.33;;;12.75;;
23782;SDS011;12071;50.850;4.446;2024-02-04T07:25:48;29.13;;;13.43;;
23782;SDS011;12071;50.850;4.446;2024-02-04T07:28:13;31.30;;;13.82;;
23782;SDS011;12071;50.850;4.446;2024-02-04T07:30:39;29.80;;;13.90;;
23782;SDS011;12071;50.850;4.446;2024-02-04T07:33:05;24.30;;;12.50;;
23782;SDS011;12071;50.850;4.446;2024-02-04T07:35:31;26.95;;;12.27;;
23782;SDS011;12071;50.850;4.446;2024-02-04T07:37:57;33.25;;;13.52;;
23782;SDS011;12071;50.850;4.446;2024-02-04T07:40:22;25.02;;;13.43;;
23782;SDS011;12071;50.850;4.446;2024-02-04T07:42:48;25.35;;;12.93;;
23782;SDS011;12071;50.850;4.446;2024-02-04T07:45:14;21.88;;;12.32;;
23782;SDS011;12071;50.850;4.446;2024-02-04T07:47:40;26.88;;;13.32;;
23782;SDS011;12071;50.850;4.446;2024-02-04T07:50:06;24.40;;;12.00;;
23782;SDS011;12071;50.850;4.446;2024-02-04T07:52:32;23.05;;;12.23;;
23782;SDS011;12071;50.850;4.446;2024-02-04T07:54:58;20.27;;;11.43;;
23782;SDS011;12071;50.850;4.446;2024-02-04T07:57:24;23.23;;;11.73;;
23782;SDS011;12071;50.850;4.446;2024-02-04T07:59:49;25.17;;;11.95;;
23782;SDS011;12071;50.850;4.446;2024-02-04T08:02:15;21.98;;;11.07;;
23782;SDS011;12071;50.850;4.446;2024-02-04T08:04:41;26.63;;;12.57;;
23782;SDS011;12071;50.850;4.446;2024-02-04T08:07:06;27.77;;;12.27;;
23782;SDS011;12071;50.850;4.446;2024-02-04T08:09:32;21.70;;;11.73;;
23782;SDS011;12071;50.850;4.446;2024-02-04T08:11:58;30.55;;;11.25;;
23782;SDS011;12071;50.850;4.446;2024-02-04T08:14:23;19.55;;;10.90;;
23782;SDS011;12071;50.850;4.446;2024-02-04T08:16:49;19.50;;;10.90;;
23782;SDS011;12071;50.850;4.446;2024-02-04T08:19:15;17.60;;;10.57;;
23782;SDS011;12071;50.850;4.446;2024-02-04T08:21:40;21.45;;;11.43;;
23782;SDS011;12071;50.850;4.446;2024-02-04T08:24:06;18.77;;;10.52;;
23782;SDS011;12071;50.850;4.446;2024-02-04T08:26:32;17.23;;;9.95;;
23782;SDS011;12071;50.850;4.446;2024-02-04T08:28:58;15.25;;;8.30;;
23782;SDS011;12071;50.850;4.446;2024-02-04T08:31:24;16.33;;;9.27;;
23782;SDS011;12071;50.850;4.446;2024-02-04T08:33:50;16.55;;;8.80;;
23782;SDS011;12071;50.850;4.446;2024-02-04T08:36:17;16.02;;;8.77;;
23782;SDS011;12071;50.850;4.446;2024-02-04T08:38:43;16.70;;;8.55;;
23782;SDS011;12071;50.850;4.446;2024-02-04T08:41:09;17.95;;;9.68;;
23782;SDS011;12071;50.850;4.446;2024-02-04T08:43:35;19.00;;;8.48;;
23782;SDS011;12071;50.850;4.446;2024-02-04T08:46:00;16.83;;;8.85;;
23782;SDS011;12071;50.850;4.446;2024-02-04T08:48:26;14.63;;;8.45;;
23782;SDS011;12071;50.850;4.446;2024-02-04T08:50:51;18.52;;;9.30;;
23782;SDS011;12071;50.850;4.446;2024-02-04T08:53:19;14.25;;;8.60;;
23782;SDS011;12071;50.850;4.446;2024-02-04T08:55:46;19.15;;;8.00;;
23782;SDS011;12071;50.850;4.446;2024-02-04T08:58:11;16.70;;;7.60;;
23782;SDS011;12071;50.850;4.446;2024-02-04T09:00:37;16.30;;;7.22;;
23782;SDS011;12071;50.850;4.446;2024-02-04T09:03:03;13.13;;;6.95;;
23782;SDS011;12071;50.850;4.446;2024-02-04T09:05:29;12.55;;;7.22;;
23782;SDS011;12071;50.850;4.446;2024-02-04T09:07:54;13.88;;;6.88;;
23782;SDS011;12071;50.850;4.446;2024-02-04T09:10:21;12.70;;;6.72;;
23782;SDS011;12071;50.850;4.446;2024-02-04T09:12:47;8.68;;;6.22;;
23782;SDS011;12071;50.850;4.446;2024-02-04T09:15:12;11.02;;;5.63;;
23782;SDS011;12071;50.850;4.446;2024-02-04T09:17:38;10.65;;;5.68;;
23782;SDS011;12071;50.850;4.446;2024-02-04T09:20:04;9.27;;;4.85;;
23782;SDS011;12071;50.850;4.446;2024-02-04T09:22:30;12.90;;;5.32;;
23782;SDS011;12071;50.850;4.446;2024-02-04T09:24:56;9.90;;;4.53;;
23782;SDS011;12071;50.850;4.446;2024-02-04T09:27:22;11.80;;;4.80;;
23782;SDS011;12071;50.850;4.446;2024-02-04T09:29:47;10.25;;;3.92;;
23782;SDS011;12071;50.850;4.446;2024-02-04T09:32:13;7.07;;;4.03;;
23782;SDS011;12071;50.850;4.446;2024-02-04T09:34:39;6.10;;;3.65;;
23782;SDS011;12071;50.850;4.446;2024-02-04T09:37:04;8.38;;;3.58;;
23782;SDS011;12071;50.850;4.446;2024-02-04T09:39:31;7.63;;;3.30;;
23782;SDS011;12071;50.850;4.446;2024-02-04T09:41:57;6.90;;;3.42;;
23782;SDS011;12071;50.850;4.446;2024-02-04T09:44:23;5.55;;;3.10;;
23782;SDS011;12071;50.850;4.446;2024-02-04T09:46:49;10.93;;;4.00;;
23782;SDS011;12071;50.850;4.446;2024-02-04T09:49:15;6.32;;;3.03;;
23782;SDS011;12071;50.850;4.446;2024-02-04T09:51:41;4.88;;;2.85;;
23782;SDS011;12071;50.850;4.446;2024-02-04T09:54:08;5.72;;;2.67;;
23782;SDS011;12071;50.850;4.446;2024-02-04T09:56:35;7.40;;;3.13;;
23782;SDS011;12071;50.850;4.446;2024-02-04T09:59:03;7.45;;;3.10;;
23782;SDS011;12071;50.850;4.446;2024-02-04T10:01:29;7.25;;;2.80;;
23782;SDS011;12071;50.850;4.446;2024-02-04T10:04:00;8.07;;;3.00;;
23782;SDS011;12071;50.850;4.446;2024-02-04T10:06:25;8.43;;;3.20;;
23782;SDS011;12071;50.850;4.446;2024-02-04T10:08:52;10.02;;;3.35;;
23782;SDS011;12071;50.850;4.446;2024-02-04T10:11:18;8.38;;;3.58;;
23782;SDS011;12071;50.850;4.446;2024-02-04T10:16:09;11.48;;;4.03;;
23782;SDS011;12071;50.850;4.446;2024-02-04T10:18:35;10.00;;;4.22;;
23782;SDS011;12071;50.850;4.446;2024-02-04T10:21:01;7.68;;;3.78;;
23782;SDS011;12071;50.850;4.446;2024-02-04T10:23:26;9.75;;;4.80;;
23782;SDS011;12071;50.850;4.446;2024-02-04T10:25:59;7.07;;;3.88;;
23782;SDS011;12071;50.850;4.446;2024-02-04T10:28:25;8.48;;;4.20;;
23782;SDS011;12071;50.850;4.446;2024-02-04T10:30:51;8.43;;;3.20;;
23782;SDS011;12071;50.850;4.446;2024-02-04T10:33:17;6.97;;;4.25;;
23782;SDS011;12071;50.850;4.446;2024-02-04T10:35:42;9.68;;;4.95;;
23782;SDS011;12071;50.850;4.446;2024-02-04T10:38:08;7.78;;;3.78;;
23782;SDS011;12071;50.850;4.446;2024-02-04T10:40:35;7.47;;;4.05;;
23782;SDS011;12071;50.850;4.446;2024-02-04T10:43:04;10.20;;;4.47;;
23782;SDS011;12071;50.850;4.446;2024-02-04T10:45:32;8.82;;;3.78;;
23782;SDS011;12071;50.850;4.446;2024-02-04T10:48:00;10.73;;;3.83;;
23782;SDS011;12071;50.850;4.446;2024-02-04T10:50:27;5.75;;;3.58;;
23782;SDS011;12071;50.850;4.446;2024-02-04T10:52:57;6.03;;;3.88;;
23782;SDS011;12071;50.850;4.446;2024-02-04T10:55:29;9.20;;;3.40;;
23782;SDS011;12071;50.850;4.446;2024-02-04T10:57:56;8.13;;;3.33;;
23782;SDS011;12071;50.850;4.446;2024-02-04T11:00:22;5.15;;;2.95;;
23782;SDS011;12071;50.850;4.446;2024-02-04T11:02:48;5.05;;;2.42;;
23782;SDS011;12071;50.850;4.446;2024-02-04T11:05:16;5.78;;;2.70;;
23782;SDS011;12071;50.850;4.446;2024-02-04T11:07:42;6.75;;;2.67;;
23782;SDS011;12071;50.850;4.446;2024-02-04T11:10:09;3.92;;;1.98;;
23782;SDS011;12071;50.850;4.446;2024-02-04T11:12:36;4.88;;;2.10;;
23782;SDS011;12071;50.850;4.446;2024-02-04T11:15:05;6.43;;;2.10;;
23782;SDS011;12071;50.850;4.446;2024-02-04T11:18:09;4.15;;;1.90;;
23782;SDS011;12071;50.850;4.446;2024-02-04T11:26:29;5.87;;;1.90;;
23782;SDS011;12071;50.850;4.446;2024-02-04T11:28:55;4.65;;;1.92;;
23782;SDS011;12071;50.850;4.446;2024-02-04T11:31:21;4.45;;;1.85;;
23782;SDS011;12071;50.850;4.446;2024-02-04T11:33:47;4.40;;;1.65;;
23782;SDS011;12071;50.850;4.446;2024-02-04T11:36:16;5.57;;;1.60;;
23782;SDS011;12071;50.850;4.446;2024-02-04T11:38:43;5.30;;;1.40;;
23782;SDS011;12071;50.850;4.446;2024-02-04T11:41:20;3.72;;;1.40;;
23782;SDS011;12071;50.850;4.446;2024-02-04T11:43:51;3.50;;;1.50;;
23782;SDS011;12071;50.850;4.446;2024-02-04T11:46:18;3.05;;;1.40;;
23782;SDS011;12071;50.850;4.446;2024-02-04T11:48:50;6.53;;;2.30;;
23782;SDS011;12071;50.850;4.446;2024-02-04T11:51:18;5.68;;;1.63;;
23782;SDS011;12071;50.850;4.446;2024-02-04T11:53:46;4.20;;;1.65;;
23782;SDS011;12071;50.850;4.446;2024-02-04T11:56:13;3.00;;;1.45;;
23782;SDS011;12071;50.850;4.446;2024-02-04T11:58:39;2.53;;;1.75;;
23782;SDS011;12071;50.850;4.446;2024-02-04T12:01:09;3.83;;;1.40;;
23782;SDS011;12071;50.850;4.446;2024-02-04T12:03:35;5.20;;;1.48;;
23782;SDS011;12071;50.850;4.446;2024-02-04T12:06:02;6.70;;;1.67;;
23782;SDS011;12071;50.850;4.446;2024-02-04T12:08:29;3.97;;;1.50;;
23782;SDS011;12071;50.850;4.446;2024-02-04T12:10:59;4.20;;;1.83;;
23782;SDS011;12071;50.850;4.446;2024-02-04T12:13:27;5.22;;;1.67;;
23782;SDS011;12071;50.850;4.446;2024-02-04T12:15:54;4.03;;;1.90;;
23782;SDS011;12071;50.850;4.446;2024-02-04T12:18:20;4.13;;;2.00;;
23782;SDS011;12071;50.850;4.446;2024-02-04T12:20:46;6.45;;;2.00;;
23782;SDS011;12071;50.850;4.446;2024-02-04T12:23:15;3.67;;;1.48;;
23782;SDS011;12071;50.850;4.446;2024-02-04T12:25:43;7.07;;;2.00;;
23782;SDS011;12071;50.850;4.446;2024-02-04T12:28:09;4.13;;;1.80;;
23782;SDS011;12071;50.850;4.446;2024-02-04T12:30:35;4.55;;;1.88;;
23782;SDS011;12071;50.850;4.446;2024-02-04T12:33:02;3.30;;;1.88;;
23782;SDS011;12071;50.850;4.446;2024-02-04T12:35:32;3.97;;;2.00;;
23782;SDS011;12071;50.850;4.446;2024-02-04T12:37:58;6.43;;;2.13;;
23782;SDS011;12071;50.850;4.446;2024-02-04T12:40:25;3.30;;;1.85;;
23782;SDS011;12071;50.850;4.446;2024-02-04T12:42:55;5.18;;;1.60;;
23782;SDS011;12071;50.850;4.446;2024-02-04T12:45:24;7.65;;;1.98;;
23782;SDS011;12071;50.850;4.446;2024-02-04T12:47:51;3.30;;;1.67;;
23782;SDS011;12071;50.850;4.446;2024-02-04T12:50:18;3.95;;;1.90;;
23782;SDS011;12071;50.850;4.446;2024-02-04T12:53:06;2.35;;;1.40;;
23782;SDS011;12071;50.850;4.446;2024-02-04T12:55:32;3.85;;;1.73;;
23782;SDS011;12071;50.850;4.446;2024-02-04T13:00:34;5.20;;;2.10;;
23782;SDS011;12071;50.850;4.446;2024-02-04T13:03:01;4.22;;;2.20;;
23782;SDS011;12071;50.850;4.446;2024-02-04T13:05:28;5.10;;;2.20;;
23782;SDS011;12071;50.850;4.446;2024-02-04T13:07:56;4.47;;;1.85;;
23782;SDS011;12071;50.850;4.446;2024-02-04T13:10:26;4.63;;;2.00;;
23782;SDS011;12071;50.850;4.446;2024-02-04T13:13:04;3.97;;;1.88;;
23782;SDS011;12071;50.850;4.446;2024-02-04T13:15:33;4.50;;;1.87;;
23782;SDS011;12071;50.850;4.446;2024-02-04T13:18:03;3.67;;;1.80;;
23782;SDS011;12071;50.850;4.446;2024-02-04T13:20:29;1.63;;;1.35;;
23782;SDS011;12071;50.850;4.446;2024-02-04T13:22:55;5.20;;;2.20;;
23782;SDS011;12071;50.850;4.446;2024-02-04T13:25:22;3.47;;;2.00;;
23782;SDS011;12071;50.850;4.446;2024-02-04T13:27:51;3.88;;;1.58;;
23782;SDS011;12071;50.850;4.446;2024-02-04T13:30:17;5.07;;;1.92;;
23782;SDS011;12071;50.850;4.446;2024-02-04T13:32:44;4.55;;;1.70;;
23782;SDS011;12071;50.850;4.446;2024-02-04T13:35:10;2.88;;;1.90;;
23782;SDS011;12071;50.850;4.446;2024-02-04T13:37:39;3.58;;;1.90;;
23782;SDS011;12071;50.850;4.446;2024-02-04T13:40:06;3.88;;;1.73;;
23782;SDS011;12071;50.850;4.446;2024-02-04T13:42:34;2.65;;;2.00;;
23782;SDS011;12071;50.850;4.446;2024-02-04T13:45:00;1.77;;;1.30;;
23782;SDS011;12071;50.850;4.446;2024-02-04T13:47:27;3.67;;;1.70;;
23782;SDS011;12071;50.850;4.446;2024-02-04T13:49:52;3.05;;;1.80;;
23782;SDS011;12071;50.850;4.446;2024-02-04T13:52:18;2.20;;;2.00;;
23782;SDS011;12071;50.850;4.446;2024-02-04T13:54:44;3.88;;;1.88;;
23782;SDS011;12071;50.850;4.446;2024-02-04T13:57:10;3.45;;;2.10;;
23782;SDS011;12071;50.850;4.446;2024-02-04T13:59:36;6.72;;;2.55;;
23782;SDS011;12071;50.850;4.446;2024-02-04T14:02:01;4.32;;;2.40;;
23782;SDS011;12071;50.850;4.446;2024-02-04T14:04:27;6.18;;;2.38;;
23782;SDS011;12071;50.850;4.446;2024-02-04T14:06:54;2.50;;;2.10;;
23782;SDS011;12071;50.850;4.446;2024-02-04T14:09:20;6.60;;;2.60;;
23782;SDS011;12071;50.850;4.446;2024-02-04T14:11:46;3.83;;;2.35;;
23782;SDS011;12071;50.850;4.446;2024-02-04T14:14:12;6.82;;;2.70;;
23782;SDS011;12071;50.850;4.446;2024-02-04T14:16:37;6.88;;;2.80;;
23782;SDS011;12071;50.850;4.446;2024-02-04T14:19:04;5.22;;;2.40;;
23782;SDS011;12071;50.850;4.446;2024-02-04T14:21:29;5.93;;;3.20;;
23782;SDS011;12071;50.850;4.446;2024-02-04T14:23:55;6.53;;;2.97;;
23782;SDS011;12071;50.850;4.446;2024-02-04T14:26:21;4.30;;;2.70;;
23782;SDS011;12071;50.850;4.446;2024-02-04T14:28:47;7.55;;;2.90;;
23782;SDS011;12071;50.850;4.446;2024-02-04T14:31:13;6.68;;;3.05;;
23782;SDS011;12071;50.850;4.446;2024-02-04T14:33:39;6.15;;;3.10;;
23782;SDS011;12071;50.850;4.446;2024-02-04T14:36:06;8.50;;;3.30;;
23782;SDS011;12071;50.850;4.446;2024-02-04T14:38:32;7.63;;;3.25;;
23782;SDS011;12071;50.850;4.446;2024-02-04T14:40:58;6.43;;;3.00;;
23782;SDS011;12071;50.850;4.446;2024-02-04T14:43:24;7.40;;;3.20;;
23782;SDS011;12071;50.850;4.446;2024-02-04T14:45:50;6.18;;;3.53;;